sensor_id;sensor_type;location;lat;lon;timestamp;pressure;altitude;pressure_sealevel;temperature;humidity
54270;BME280;40181;51.560;13.000;2023-01-31T00:00:49;100674.00;;;2.85;92.68
54270;BME280;40181;51.560;13.000;2023-01-31T00:03:21;100672.94;;;2.82;92.48
54270;BME280;40181;51.560;13.000;2023-01-31T00:05:50;100679.91;;;2.83;92.40
54270;BME280;40181;51.560;13.000;2023-01-31T00:08:19;100683.41;;;2.83;92.39
54270;BME280;40181;51.560;13.000;2023-01-31T00:10:48;100679.25;;;2.87;92.25
54270;BME280;40181;51.560;13.000;2023-01-31T00:13:17;100691.13;;;2.82;92.14
54270;BME280;40181;51.560;13.000;2023-01-31T00:15:46;100693.19;;;2.89;92.22
54270;BME280;40181;51.560;13.000;2023-01-31T00:18:15;100694.41;;;2.78;92.26
54270;BME280;40181;51.560;13.000;2023-01-31T00:20:47;100696.31;;;2.82;92.08
54270;BME280;40181;51.560;13.000;2023-01-31T00:23:16;100698.47;;;2.72;91.85
54270;BME280;40181;51.560;13.000;2023-01-31T00:25:45;100706.75;;;2.83;91.06
54270;BME280;40181;51.560;13.000;2023-01-31T00:28:14;100714.56;;;2.83;90.45
54270;BME280;40181;51.560;13.000;2023-01-31T00:30:43;100725.97;;;2.69;90.82
54270;BME280;40181;51.560;13.000;2023-01-31T00:33:12;100716.72;;;2.74;90.02
54270;BME280;40181;51.560;13.000;2023-01-31T00:35:41;100714.84;;;2.71;89.72
54270;BME280;40181;51.560;13.000;2023-01-31T00:38:13;100736.50;;;2.72;90.24
54270;BME280;40181;51.560;13.000;2023-01-31T00:40:49;100724.41;;;2.72;90.49
54270;BME280;40181;51.560;13.000;2023-01-31T00:43:19;100722.63;;;2.71;90.68
54270;BME280;40181;51.560;13.000;2023-01-31T00:45:48;100740.44;;;2.63;90.99
54270;BME280;40181;51.560;13.000;2023-01-31T00:48:17;100719.69;;;2.63;91.83
54270;BME280;40181;51.560;13.000;2023-01-31T00:50:46;100729.88;;;2.60;91.79
54270;BME280;40181;51.560;13.000;2023-01-31T00:53:18;100721.09;;;2.57;91.84
54270;BME280;40181;51.560;13.000;2023-01-31T00:55:48;100742.81;;;2.59;92.18
54270;BME280;40181;51.560;13.000;2023-01-31T00:58:17;100750.88;;;2.47;92.87
54270;BME280;40181;51.560;13.000;2023-01-31T01:00:47;100745.38;;;2.41;93.66
54270;BME280;40181;51.560;13.000;2023-01-31T01:03:16;100753.94;;;2.21;95.48
54270;BME280;40181;51.560;13.000;2023-01-31T01:05:45;100754.81;;;2.22;95.68
54270;BME280;40181;51.560;13.000;2023-01-31T01:08:14;100766.38;;;2.29;96.02
54270;BME280;40181;51.560;13.000;2023-01-31T01:10:46;100769.44;;;2.03;97.31
54270;BME280;40181;51.560;13.000;2023-01-31T01:13:15;100765.91;;;2.19;98.56
54270;BME280;40181;51.560;13.000;2023-01-31T01:15:44;100773.50;;;1.98;100.00
54270;BME280;40181;51.560;13.000;2023-01-31T01:18:13;100781.91;;;1.94;100.00
54270;BME280;40181;51.560;13.000;2023-01-31T01:20:42;100782.81;;;1.95;100.00
54270;BME280;40181;51.560;13.000;2023-01-31T01:23:11;100785.94;;;1.89;100.00
54270;BME280;40181;51.560;13.000;2023-01-31T01:25:44;100787.81;;;1.91;100.00
54270;BME280;40181;51.560;13.000;2023-01-31T01:28:13;100798.38;;;1.95;100.00
54270;BME280;40181;51.560;13.000;2023-01-31T01:30:42;100794.13;;;2.13;100.00
54270;BME280;40181;51.560;13.000;2023-01-31T01:33:11;100798.84;;;2.04;100.00
54270;BME280;40181;51.560;13.000;2023-01-31T01:35:40;100781.53;;;2.03;100.00
54270;BME280;40181;51.560;13.000;2023-01-31T01:38:09;100789.81;;;2.14;100.00
54270;BME280;40181;51.560;13.000;2023-01-31T01:40:38;100785.84;;;2.20;100.00
54270;BME280;40181;51.560;13.000;2023-01-31T01:43:11;100788.03;;;2.13;100.00
54270;BME280;40181;51.560;13.000;2023-01-31T01:45:40;100793.81;;;2.07;100.00
54270;BME280;40181;51.560;13.000;2023-01-31T01:48:14;100799.56;;;2.18;100.00
54270;BME280;40181;51.560;13.000;2023-01-31T01:50:47;100809.34;;;2.07;100.00
54270;BME280;40181;51.560;13.000;2023-01-31T01:53:19;100805.78;;;2.21;100.00
54270;BME280;40181;51.560;13.000;2023-01-31T01:55:54;100803.69;;;2.14;100.00
54270;BME280;40181;51.560;13.000;2023-01-31T01:58:31;100789.47;;;2.24;100.00
54270;BME280;40181;51.560;13.000;2023-01-31T02:01:04;100788.38;;;2.19;100.00
54270;BME280;40181;51.560;13.000;2023-01-31T02:03:35;100804.06;;;2.22;100.00
54270;BME280;40181;51.560;13.000;2023-01-31T02:06:05;100791.84;;;2.19;100.00
54270;BME280;40181;51.560;13.000;2023-01-31T02:08:37;100803.19;;;2.21;100.00
54270;BME280;40181;51.560;13.000;2023-01-31T02:11:11;100809.34;;;2.24;100.00
54270;BME280;40181;51.560;13.000;2023-01-31T02:13:46;100812.81;;;2.24;100.00
54270;BME280;40181;51.560;13.000;2023-01-31T02:16:17;100809.72;;;2.31;99.99
54270;BME280;40181;51.560;13.000;2023-01-31T02:18:46;100814.09;;;2.32;100.00
54270;BME280;40181;51.560;13.000;2023-01-31T02:28:11;100815.63;;;2.29;99.97
54270;BME280;40181;51.560;13.000;2023-01-31T02:31:30;100842.47;;;2.29;100.00
54270;BME280;40181;51.560;13.000;2023-01-31T02:34:25;100845.38;;;2.35;100.00
54270;BME280;40181;51.560;13.000;2023-01-31T02:37:14;100846.03;;;2.31;100.00
54270;BME280;40181;51.560;13.000;2023-01-31T02:39:53;100858.13;;;2.31;100.00
54270;BME280;40181;51.560;13.000;2023-01-31T02:42:35;100854.72;;;2.32;100.00
54270;BME280;40181;51.560;13.000;2023-01-31T02:45:18;100861.66;;;2.33;100.00
54270;BME280;40181;51.560;13.000;2023-01-31T02:48:00;100858.94;;;2.30;100.00
54270;BME280;40181;51.560;13.000;2023-01-31T02:50:44;100860.84;;;2.34;100.00
54270;BME280;40181;51.560;13.000;2023-01-31T02:53:20;100864.25;;;2.33;100.00
54270;BME280;40181;51.560;13.000;2023-01-31T02:55:56;100868.28;;;2.44;100.00
54270;BME280;40181;51.560;13.000;2023-01-31T02:58:43;100875.34;;;2.47;100.00
54270;BME280;40181;51.560;13.000;2023-01-31T03:01:20;100882.31;;;2.48;100.00
54270;BME280;40181;51.560;13.000;2023-01-31T03:03:52;100878.50;;;2.41;100.00
54270;BME280;40181;51.560;13.000;2023-01-31T03:06:54;100898.91;;;2.52;99.55
54270;BME280;40181;51.560;13.000;2023-01-31T03:09:32;100886.06;;;2.37;99.68
54270;BME280;40181;51.560;13.000;2023-01-31T03:15:34;100890.00;;;2.46;98.92
54270;BME280;40181;51.560;13.000;2023-01-31T03:18:25;100912.28;;;2.43;98.68
54270;BME280;40181;51.560;13.000;2023-01-31T03:21:01;100905.41;;;2.43;98.99
54270;BME280;40181;51.560;13.000;2023-01-31T03:23:37;100894.13;;;2.43;98.93
54270;BME280;40181;51.560;13.000;2023-01-31T03:26:08;100893.16;;;2.41;98.81
54270;BME280;40181;51.560;13.000;2023-01-31T03:28:38;100897.22;;;2.52;98.54
54270;BME280;40181;51.560;13.000;2023-01-31T03:31:14;100912.28;;;2.43;99.38
54270;BME280;40181;51.560;13.000;2023-01-31T03:33:48;100904.44;;;2.41;100.00
54270;BME280;40181;51.560;13.000;2023-01-31T03:36:27;100903.25;;;2.34;100.00
54270;BME280;40181;51.560;13.000;2023-01-31T03:39:09;100909.16;;;2.48;100.00
54270;BME280;40181;51.560;13.000;2023-01-31T03:41:52;100904.50;;;2.43;100.00
54270;BME280;40181;51.560;13.000;2023-01-31T03:44:31;100917.66;;;2.46;100.00
54270;BME280;40181;51.560;13.000;2023-01-31T03:47:08;100914.09;;;2.44;99.18
54270;BME280;40181;51.560;13.000;2023-01-31T03:49:42;100912.94;;;2.55;98.94
54270;BME280;40181;51.560;13.000;2023-01-31T03:52:14;100914.25;;;2.47;98.46
54270;BME280;40181;51.560;13.000;2023-01-31T03:54:53;100909.94;;;2.47;97.99
54270;BME280;40181;51.560;13.000;2023-01-31T03:57:28;100918.28;;;2.42;97.90
54270;BME280;40181;51.560;13.000;2023-01-31T04:00:02;100920.41;;;2.49;97.26
54270;BME280;40181;51.560;13.000;2023-01-31T04:02:36;100922.84;;;2.46;96.86
54270;BME280;40181;51.560;13.000;2023-01-31T04:05:10;100918.53;;;2.46;96.64
54270;BME280;40181;51.560;13.000;2023-01-31T04:07:41;100919.66;;;2.52;95.95
54270;BME280;40181;51.560;13.000;2023-01-31T04:10:16;100927.53;;;2.53;96.14
54270;BME280;40181;51.560;13.000;2023-01-31T04:12:46;100941.31;;;2.52;95.41
54270;BME280;40181;51.560;13.000;2023-01-31T04:15:15;100932.22;;;2.60;95.64
54270;BME280;40181;51.560;13.000;2023-01-31T04:17:44;100931.25;;;2.58;95.15
54270;BME280;40181;51.560;13.000;2023-01-31T04:20:13;100936.38;;;2.57;95.03
54270;BME280;40181;51.560;13.000;2023-01-31T04:22:42;100945.28;;;2.62;94.67
54270;BME280;40181;51.560;13.000;2023-01-31T04:25:14;100952.00;;;2.58;92.53
54270;BME280;40181;51.560;13.000;2023-01-31T04:27:43;100948.59;;;2.59;93.22
54270;BME280;40181;51.560;13.000;2023-01-31T04:30:13;100950.94;;;2.55;93.74
54270;BME280;40181;51.560;13.000;2023-01-31T04:32:42;100954.44;;;2.55;94.18
54270;BME280;40181;51.560;13.000;2023-01-31T04:35:11;100964.34;;;2.62;94.11
54270;BME280;40181;51.560;13.000;2023-01-31T04:37:40;100971.88;;;2.58;94.55
54270;BME280;40181;51.560;13.000;2023-01-31T04:40:10;100963.09;;;2.56;94.92
54270;BME280;40181;51.560;13.000;2023-01-31T04:42:42;100972.03;;;2.61;94.70
54270;BME280;40181;51.560;13.000;2023-01-31T04:45:12;100980.94;;;2.66;95.05
54270;BME280;40181;51.560;13.000;2023-01-31T04:47:41;100983.38;;;2.63;94.95
54270;BME280;40181;51.560;13.000;2023-01-31T04:50:10;100989.38;;;2.62;95.17
54270;BME280;40181;51.560;13.000;2023-01-31T04:52:39;100984.41;;;2.67;95.30
54270;BME280;40181;51.560;13.000;2023-01-31T04:55:08;100983.38;;;2.63;95.27
54270;BME280;40181;51.560;13.000;2023-01-31T04:57:40;100987.25;;;2.71;95.30
54270;BME280;40181;51.560;13.000;2023-01-31T05:00:11;100973.16;;;2.66;95.82
54270;BME280;40181;51.560;13.000;2023-01-31T05:02:41;100989.47;;;2.63;95.88
54270;BME280;40181;51.560;13.000;2023-01-31T05:05:10;100978.59;;;2.71;95.36
54270;BME280;40181;51.560;13.000;2023-01-31T05:07:39;100989.59;;;2.67;95.94
54270;BME280;40181;51.560;13.000;2023-01-31T05:10:09;100979.72;;;2.59;95.89
54270;BME280;40181;51.560;13.000;2023-01-31T05:12:41;100971.59;;;2.70;95.81
54270;BME280;40181;51.560;13.000;2023-01-31T05:15:10;100974.13;;;2.68;95.96
54270;BME280;40181;51.560;13.000;2023-01-31T05:17:40;100964.16;;;2.76;95.66
54270;BME280;40181;51.560;13.000;2023-01-31T05:20:10;100985.38;;;2.69;95.52
54270;BME280;40181;51.560;13.000;2023-01-31T05:22:39;100976.63;;;2.67;95.85
54270;BME280;40181;51.560;13.000;2023-01-31T05:25:08;100981.91;;;2.68;96.17
54270;BME280;40181;51.560;13.000;2023-01-31T05:27:37;100984.50;;;2.68;96.49
54270;BME280;40181;51.560;13.000;2023-01-31T05:30:10;100972.84;;;2.60;96.67
54270;BME280;40181;51.560;13.000;2023-01-31T05:32:40;100982.97;;;2.72;96.14
54270;BME280;40181;51.560;13.000;2023-01-31T05:35:10;100983.84;;;2.72;96.23
54270;BME280;40181;51.560;13.000;2023-01-31T05:37:40;100980.38;;;2.72;96.29
54270;BME280;40181;51.560;13.000;2023-01-31T05:40:12;100981.50;;;2.60;96.38
54270;BME280;40181;51.560;13.000;2023-01-31T05:42:45;100991.81;;;2.75;95.98
54270;BME280;40181;51.560;13.000;2023-01-31T05:45:21;100982.56;;;2.64;96.93
54270;BME280;40181;51.560;13.000;2023-01-31T05:47:50;100994.22;;;2.56;98.30
54270;BME280;40181;51.560;13.000;2023-01-31T05:50:20;100986.94;;;2.65;98.05
54270;BME280;40181;51.560;13.000;2023-01-31T05:52:50;100993.59;;;2.60;97.93
54270;BME280;40181;51.560;13.000;2023-01-31T05:55:20;100999.13;;;2.66;97.88
54270;BME280;40181;51.560;13.000;2023-01-31T05:57:53;100988.16;;;2.55;98.02
54270;BME280;40181;51.560;13.000;2023-01-31T06:00:25;100983.78;;;2.54;98.05
54270;BME280;40181;51.560;13.000;2023-01-31T06:02:56;100982.16;;;2.56;98.22
54270;BME280;40181;51.560;13.000;2023-01-31T06:05:25;100993.44;;;2.57;98.48
54270;BME280;40181;51.560;13.000;2023-01-31T06:07:54;100998.63;;;2.57;99.19
54270;BME280;40181;51.560;13.000;2023-01-31T06:10:24;100995.28;;;2.59;99.01
54270;BME280;40181;51.560;13.000;2023-01-31T06:12:56;101005.63;;;2.43;99.94
54270;BME280;40181;51.560;13.000;2023-01-31T06:15:25;101002.75;;;2.53;100.00
54270;BME280;40181;51.560;13.000;2023-01-31T06:17:54;101010.78;;;2.58;100.00
54270;BME280;40181;51.560;13.000;2023-01-31T06:20:24;101000.63;;;2.46;100.00
54270;BME280;40181;51.560;13.000;2023-01-31T06:22:53;101002.56;;;2.33;100.00
54270;BME280;40181;51.560;13.000;2023-01-31T06:25:22;101000.06;;;2.35;100.00
54270;BME280;40181;51.560;13.000;2023-01-31T06:27:51;101008.19;;;2.41;100.00
54270;BME280;40181;51.560;13.000;2023-01-31T06:30:25;101013.41;;;2.43;100.00
54270;BME280;40181;51.560;13.000;2023-01-31T06:32:54;101012.44;;;2.41;100.00
54270;BME280;40181;51.560;13.000;2023-01-31T06:35:24;101014.22;;;2.42;100.00
54270;BME280;40181;51.560;13.000;2023-01-31T06:37:54;101022.19;;;2.45;100.00
54270;BME280;40181;51.560;13.000;2023-01-31T06:40:23;101018.56;;;2.58;99.80
54270;BME280;40181;51.560;13.000;2023-01-31T06:42:52;101026.38;;;2.43;100.00
54270;BME280;40181;51.560;13.000;2023-01-31T06:45:23;101026.56;;;2.46;100.00
54270;BME280;40181;51.560;13.000;2023-01-31T06:47:52;101027.38;;;2.45;100.00
54270;BME280;40181;51.560;13.000;2023-01-31T06:50:21;101043.31;;;2.36;100.00
54270;BME280;40181;51.560;13.000;2023-01-31T06:52:50;101036.94;;;2.46;100.00
54270;BME280;40181;51.560;13.000;2023-01-31T06:55:19;101029.72;;;2.40;100.00
54270;BME280;40181;51.560;13.000;2023-01-31T06:57:49;101052.25;;;2.41;100.00
54270;BME280;40181;51.560;13.000;2023-01-31T07:00:19;101041.88;;;2.41;100.00
54270;BME280;40181;51.560;13.000;2023-01-31T07:02:52;101047.69;;;2.37;100.00
54270;BME280;40181;51.560;13.000;2023-01-31T07:05:21;101046.88;;;2.38;100.00
54270;BME280;40181;51.560;13.000;2023-01-31T07:07:51;101042.25;;;2.32;100.00
54270;BME280;40181;51.560;13.000;2023-01-31T07:10:20;101046.16;;;2.41;100.00
54270;BME280;40181;51.560;13.000;2023-01-31T07:12:49;101048.25;;;2.31;100.00
54270;BME280;40181;51.560;13.000;2023-01-31T07:15:18;101049.16;;;2.32;100.00
54270;BME280;40181;51.560;13.000;2023-01-31T07:17:49;101046.16;;;2.41;100.00
54270;BME280;40181;51.560;13.000;2023-01-31T07:20:21;101068.38;;;2.35;100.00
54270;BME280;40181;51.560;13.000;2023-01-31T07:22:54;101041.31;;;2.47;100.00
54270;BME280;40181;51.560;13.000;2023-01-31T07:25:23;101062.69;;;2.43;100.00
54270;BME280;40181;51.560;13.000;2023-01-31T07:27:52;101043.66;;;2.42;100.00
54270;BME280;40181;51.560;13.000;2023-01-31T07:30:21;101039.69;;;2.49;100.00
54270;BME280;40181;51.560;13.000;2023-01-31T07:32:53;101039.94;;;2.54;100.00
54270;BME280;40181;51.560;13.000;2023-01-31T07:35:22;101038.94;;;2.35;100.00
54270;BME280;40181;51.560;13.000;2023-01-31T07:37:52;101031.19;;;2.52;100.00
54270;BME280;40181;51.560;13.000;2023-01-31T07:40:21;101033.22;;;2.57;100.00
54270;BME280;40181;51.560;13.000;2023-01-31T07:42:50;101034.94;;;2.57;100.00
54270;BME280;40181;51.560;13.000;2023-01-31T07:45:19;101034.03;;;2.56;100.00
54270;BME280;40181;51.560;13.000;2023-01-31T07:47:48;101023.16;;;2.47;100.00
54270;BME280;40181;51.560;13.000;2023-01-31T07:50:20;101024.44;;;2.39;100.00
54270;BME280;40181;51.560;13.000;2023-01-31T07:52:51;101025.34;;;2.56;100.00
54270;BME280;40181;51.560;13.000;2023-01-31T07:55:20;101028.69;;;2.53;100.00
54270;BME280;40181;51.560;13.000;2023-01-31T07:57:49;101027.16;;;2.57;100.00
54270;BME280;40181;51.560;13.000;2023-01-31T08:00:19;101039.81;;;2.67;100.00
54270;BME280;40181;51.560;13.000;2023-01-31T08:03:01;101029.44;;;2.67;98.94
54270;BME280;40181;51.560;13.000;2023-01-31T08:05:47;101028.19;;;2.77;98.75
54270;BME280;40181;51.560;13.000;2023-01-31T08:08:16;101021.06;;;2.73;97.63
54270;BME280;40181;51.560;13.000;2023-01-31T08:10:45;101012.63;;;2.60;97.24
54270;BME280;40181;51.560;13.000;2023-01-31T08:13:14;101028.91;;;2.74;97.27
54270;BME280;40181;51.560;13.000;2023-01-31T08:15:43;101012.56;;;2.75;96.78
54270;BME280;40181;51.560;13.000;2023-01-31T08:18:12;101017.81;;;2.77;96.26
54270;BME280;40181;51.560;13.000;2023-01-31T08:20:41;101011.56;;;2.73;95.42
54270;BME280;40181;51.560;13.000;2023-01-31T08:23:13;101013.19;;;2.71;95.29
54270;BME280;40181;51.560;13.000;2023-01-31T08:25:42;101010.13;;;2.79;94.84
54270;BME280;40181;51.560;13.000;2023-01-31T08:28:11;101013.28;;;2.89;93.78
54270;BME280;40181;51.560;13.000;2023-01-31T08:30:40;101021.13;;;2.91;93.24
54270;BME280;40181;51.560;13.000;2023-01-31T08:33:10;101001.75;;;3.01;93.21
54270;BME280;40181;51.560;13.000;2023-01-31T08:35:40;100988.84;;;3.02;92.15
54270;BME280;40181;51.560;13.000;2023-01-31T08:38:09;100986.50;;;3.07;92.04
54270;BME280;40181;51.560;13.000;2023-01-31T08:40:40;100989.00;;;3.06;90.97
54270;BME280;40181;51.560;13.000;2023-01-31T08:43:10;100982.25;;;3.09;90.77
54270;BME280;40181;51.560;13.000;2023-01-31T08:45:39;100981.53;;;3.12;90.78
54270;BME280;40181;51.560;13.000;2023-01-31T08:48:08;100975.81;;;3.19;89.70
54270;BME280;40181;51.560;13.000;2023-01-31T08:50:37;100982.06;;;3.23;89.83
54270;BME280;40181;51.560;13.000;2023-01-31T08:53:06;100984.28;;;3.33;89.92
54270;BME280;40181;51.560;13.000;2023-01-31T08:55:35;100982.81;;;3.38;89.65
54270;BME280;40181;51.560;13.000;2023-01-31T08:58:07;100982.28;;;3.27;89.30
54270;BME280;40181;51.560;13.000;2023-01-31T09:00:36;100975.03;;;3.38;89.71
54270;BME280;40181;51.560;13.000;2023-01-31T09:03:05;100971.97;;;3.29;89.04
54270;BME280;40181;51.560;13.000;2023-01-31T09:05:34;100972.28;;;3.35;88.66
54270;BME280;40181;51.560;13.000;2023-01-31T09:08:03;100959.91;;;3.29;88.34
54270;BME280;40181;51.560;13.000;2023-01-31T09:10:33;100957.06;;;3.43;88.63
54270;BME280;40181;51.560;13.000;2023-01-31T09:13:02;100966.88;;;3.30;87.84
54270;BME280;40181;51.560;13.000;2023-01-31T09:15:33;100961.00;;;3.35;87.47
54270;BME280;40181;51.560;13.000;2023-01-31T09:18:03;100963.47;;;3.31;86.54
54270;BME280;40181;51.560;13.000;2023-01-31T09:20:32;100960.47;;;3.24;86.49
54270;BME280;40181;51.560;13.000;2023-01-31T09:23:01;100954.16;;;3.37;88.19
54270;BME280;40181;51.560;13.000;2023-01-31T09:25:30;100951.66;;;3.38;88.69
54270;BME280;40181;51.560;13.000;2023-01-31T09:27:59;100950.25;;;3.27;88.44
54270;BME280;40181;51.560;13.000;2023-01-31T09:30:28;100942.09;;;3.37;87.93
54270;BME280;40181;51.560;13.000;2023-01-31T09:33:01;100952.13;;;3.29;87.40
54270;BME280;40181;51.560;13.000;2023-01-31T09:35:30;100950.53;;;3.33;87.66
54270;BME280;40181;51.560;13.000;2023-01-31T09:37:59;100954.84;;;3.32;87.13
54270;BME280;40181;51.560;13.000;2023-01-31T09:40:30;100963.59;;;3.35;86.97
54270;BME280;40181;51.560;13.000;2023-01-31T09:43:01;100952.84;;;3.27;87.02
54270;BME280;40181;51.560;13.000;2023-01-31T09:45:31;100955.00;;;3.36;87.77
54270;BME280;40181;51.560;13.000;2023-01-31T09:48:06;100953.72;;;3.27;87.41
54270;BME280;40181;51.560;13.000;2023-01-31T09:50:41;100949.44;;;3.28;87.34
54270;BME280;40181;51.560;13.000;2023-01-31T09:53:14;100944.53;;;3.34;87.50
54270;BME280;40181;51.560;13.000;2023-01-31T09:55:53;100949.16;;;3.40;87.45
54270;BME280;40181;51.560;13.000;2023-01-31T09:58:30;100935.84;;;3.34;86.95
54270;BME280;40181;51.560;13.000;2023-01-31T10:01:08;100943.97;;;3.40;87.25
54270;BME280;40181;51.560;13.000;2023-01-31T10:03:50;100951.00;;;3.42;87.64
54270;BME280;40181;51.560;13.000;2023-01-31T10:06:34;100939.81;;;3.43;87.91
54270;BME280;40181;51.560;13.000;2023-01-31T10:09:12;100938.25;;;3.47;88.17
54270;BME280;40181;51.560;13.000;2023-01-31T10:11:49;100915.34;;;3.58;88.59
54270;BME280;40181;51.560;13.000;2023-01-31T10:14:28;100932.75;;;3.41;88.06
54270;BME280;40181;51.560;13.000;2023-01-31T10:17:05;100916.69;;;3.50;88.16
54270;BME280;40181;51.560;13.000;2023-01-31T10:19:45;100936.00;;;3.55;87.60
54270;BME280;40181;51.560;13.000;2023-01-31T10:22:20;100918.03;;;3.59;87.63
54270;BME280;40181;51.560;13.000;2023-01-31T10:24:57;100915.88;;;3.51;87.87
54270;BME280;40181;51.560;13.000;2023-01-31T10:27:46;100910.25;;;3.41;87.63
54270;BME280;40181;51.560;13.000;2023-01-31T10:30:23;100898.91;;;3.57;87.45
54270;BME280;40181;51.560;13.000;2023-01-31T10:32:59;100898.38;;;3.65;86.63
54270;BME280;40181;51.560;13.000;2023-01-31T10:35:41;100905.91;;;3.60;86.41
54270;BME280;40181;51.560;13.000;2023-01-31T10:38:16;100889.47;;;3.59;85.85
54270;BME280;40181;51.560;13.000;2023-01-31T10:40:52;100886.72;;;3.56;86.01
54270;BME280;40181;51.560;13.000;2023-01-31T10:43:32;100875.88;;;3.65;85.99
54270;BME280;40181;51.560;13.000;2023-01-31T10:46:09;100873.69;;;3.74;85.85
54270;BME280;40181;51.560;13.000;2023-01-31T10:48:40;100866.63;;;3.72;85.33
54270;BME280;40181;51.560;13.000;2023-01-31T10:51:28;100858.19;;;3.76;84.77
54270;BME280;40181;51.560;13.000;2023-01-31T10:54:21;100864.19;;;3.75;83.92
54270;BME280;40181;51.560;13.000;2023-01-31T10:56:56;100869.53;;;3.78;83.31
54270;BME280;40181;51.560;13.000;2023-01-31T10:59:30;100844.09;;;3.91;83.00
54270;BME280;40181;51.560;13.000;2023-01-31T11:02:02;100843.00;;;3.85;82.89
54270;BME280;40181;51.560;13.000;2023-01-31T11:04:35;100833.78;;;3.92;83.03
54270;BME280;40181;51.560;13.000;2023-01-31T11:07:10;100834.94;;;3.99;82.08
54270;BME280;40181;51.560;13.000;2023-01-31T11:09:42;100824.69;;;4.02;82.03
54270;BME280;40181;51.560;13.000;2023-01-31T11:12:16;100827.50;;;4.07;82.10
54270;BME280;40181;51.560;13.000;2023-01-31T11:15:03;100815.63;;;4.13;82.16
54270;BME280;40181;51.560;13.000;2023-01-31T11:17:35;100803.38;;;4.11;82.21
54270;BME280;40181;51.560;13.000;2023-01-31T11:20:06;100811.06;;;4.08;81.38
54270;BME280;40181;51.560;13.000;2023-01-31T11:22:45;100804.81;;;4.24;80.79
54270;BME280;40181;51.560;13.000;2023-01-31T11:25:18;100802.72;;;4.15;81.11
54270;BME280;40181;51.560;13.000;2023-01-31T11:27:51;100791.13;;;4.28;81.89
54270;BME280;40181;51.560;13.000;2023-01-31T11:30:24;100799.41;;;4.19;80.82
54270;BME280;40181;51.560;13.000;2023-01-31T11:32:56;100778.53;;;4.18;81.29
54270;BME280;40181;51.560;13.000;2023-01-31T11:35:27;100772.09;;;4.29;80.87
54270;BME280;40181;51.560;13.000;2023-01-31T11:38:02;100766.75;;;4.26;80.97
54270;BME280;40181;51.560;13.000;2023-01-31T11:40:46;100754.19;;;4.37;81.75
54270;BME280;40181;51.560;13.000;2023-01-31T11:43:24;100752.91;;;4.27;82.17
54270;BME280;40181;51.560;13.000;2023-01-31T11:45:56;100759.28;;;4.34;82.61
54270;BME280;40181;51.560;13.000;2023-01-31T11:48:30;100745.25;;;4.30;82.95
54270;BME280;40181;51.560;13.000;2023-01-31T11:51:04;100741.53;;;4.23;82.89
54270;BME280;40181;51.560;13.000;2023-01-31T11:53:38;100728.44;;;4.22;82.16
54270;BME280;40181;51.560;13.000;2023-01-31T11:56:16;100735.50;;;4.24;82.49
54270;BME280;40181;51.560;13.000;2023-01-31T11:58:51;100738.94;;;4.23;82.40
54270;BME280;40181;51.560;13.000;2023-01-31T12:01:25;100719.06;;;4.25;83.94
54270;BME280;40181;51.560;13.000;2023-01-31T12:03:57;100706.16;;;4.07;86.03
54270;BME280;40181;51.560;13.000;2023-01-31T12:06:31;100696.22;;;4.18;87.62
54270;BME280;40181;51.560;13.000;2023-01-31T12:09:05;100697.03;;;3.96;88.57
54270;BME280;40181;51.560;13.000;2023-01-31T12:11:50;100697.41;;;4.05;89.04
54270;BME280;40181;51.560;13.000;2023-01-31T12:14:21;100688.72;;;4.05;89.17
54270;BME280;40181;51.560;13.000;2023-01-31T12:16:53;100681.31;;;4.14;88.17
54270;BME280;40181;51.560;13.000;2023-01-31T12:19:34;100683.16;;;4.17;88.85
54270;BME280;40181;51.560;13.000;2023-01-31T12:22:14;100681.56;;;3.99;87.86
54270;BME280;40181;51.560;13.000;2023-01-31T12:25:00;100669.19;;;4.14;88.17
54270;BME280;40181;51.560;13.000;2023-01-31T12:27:45;100656.97;;;4.12;87.36
54270;BME280;40181;51.560;13.000;2023-01-31T12:30:37;100647.13;;;4.26;87.36
54270;BME280;40181;51.560;13.000;2023-01-31T12:33:34;100650.50;;;4.23;87.68
54270;BME280;40181;51.560;13.000;2023-01-31T12:36:44;100644.28;;;4.20;87.29
54270;BME280;40181;51.560;13.000;2023-01-31T12:39:34;100638.19;;;4.19;87.83
54270;BME280;40181;51.560;13.000;2023-01-31T12:42:35;100616.63;;;4.22;88.31
54270;BME280;40181;51.560;13.000;2023-01-31T12:45:31;100617.84;;;4.09;87.97
54270;BME280;40181;51.560;13.000;2023-01-31T12:48:24;100606.81;;;4.14;88.88
54270;BME280;40181;51.560;13.000;2023-01-31T12:51:10;100602.44;;;3.92;89.78
54270;BME280;40181;51.560;13.000;2023-01-31T12:53:54;100594.72;;;3.94;91.34
54270;BME280;40181;51.560;13.000;2023-01-31T12:59:38;100572.00;;;3.90;93.80
54270;BME280;40181;51.560;13.000;2023-01-31T13:02:25;100584.13;;;3.89;94.23
54270;BME280;40181;51.560;13.000;2023-01-31T13:05:09;100571.81;;;3.85;95.48
54270;BME280;40181;51.560;13.000;2023-01-31T13:07:49;100571.75;;;3.62;96.73
54270;BME280;40181;51.560;13.000;2023-01-31T13:10:29;100595.63;;;3.53;97.91
54270;BME280;40181;51.560;13.000;2023-01-31T13:13:05;100587.97;;;3.56;98.09
54270;BME280;40181;51.560;13.000;2023-01-31T13:15:43;100555.53;;;3.46;98.56
54270;BME280;40181;51.560;13.000;2023-01-31T13:18:16;100564.00;;;3.64;98.06
54270;BME280;40181;51.560;13.000;2023-01-31T13:20:50;100554.44;;;3.63;98.03
54270;BME280;40181;51.560;13.000;2023-01-31T13:23:25;100560.28;;;3.57;97.53
54270;BME280;40181;51.560;13.000;2023-01-31T13:26:02;100537.28;;;3.66;97.50
54270;BME280;40181;51.560;13.000;2023-01-31T13:28:38;100537.66;;;3.76;97.00
54270;BME280;40181;51.560;13.000;2023-01-31T13:31:19;100538.19;;;3.67;96.17
54270;BME280;40181;51.560;13.000;2023-01-31T13:33:53;100551.75;;;3.81;95.50